createdAt,value
2023-10-30T00:01:32.832Z,1.00
2023-10-30T00:04:02.725Z,1.27
2023-10-30T00:06:31.990Z,0.77
2023-10-30T00:09:04.065Z,1.08
2023-10-30T00:11:31.949Z,0.85
2023-10-30T00:14:01.254Z,0.80
2023-10-30T00:16:28.176Z,0.97
2023-10-30T00:18:54.844Z,0.98
2023-10-30T00:21:21.416Z,1.02
2023-10-30T00:23:49.358Z,1.15
2023-10-30T00:26:15.946Z,0.82
2023-10-30T00:28:42.742Z,1.10
2023-10-30T00:31:13.711Z,0.88
2023-10-30T00:33:43.067Z,1.33
2023-10-30T00:36:11.233Z,0.82
2023-10-30T00:38:38.081Z,0.90
2023-10-30T00:41:09.646Z,1.30
2023-10-30T00:43:39.363Z,0.90
2023-10-30T00:46:06.575Z,0.93
2023-10-30T00:48:33.376Z,1.10
2023-10-30T00:51:01.656Z,1.10
2023-10-30T00:53:28.668Z,0.97
2023-10-30T00:55:56.851Z,0.93
2023-10-30T00:58:27.323Z,1.00
2023-10-30T01:00:54.264Z,1.20
2023-10-30T01:03:21.716Z,0.95
2023-10-30T01:05:56.529Z,1.17
2023-10-30T01:08:23.331Z,0.80
2023-10-30T01:10:51.544Z,0.80
2023-10-30T01:13:21.264Z,1.00
2023-10-30T01:15:58.148Z,0.88
2023-10-30T01:18:28.807Z,1.67
2023-10-30T01:20:59.732Z,1.00
2023-10-30T01:23:28.018Z,1.00
2023-10-30T01:25:57.032Z,1.20
2023-10-30T01:28:23.766Z,1.00
2023-10-30T01:30:50.781Z,0.90
2023-10-30T01:33:19.502Z,1.58
2023-10-30T01:35:46.159Z,1.27
2023-10-30T01:38:13.168Z,0.93
2023-10-30T01:40:48.200Z,0.80
2023-10-30T01:43:14.811Z,0.90
2023-10-30T01:45:41.549Z,1.00
2023-10-30T01:48:09.324Z,1.10
2023-10-30T01:50:38.096Z,1.45
2023-10-30T01:53:04.842Z,1.20
2023-10-30T01:55:32.008Z,1.20
2023-10-30T01:57:58.533Z,1.45
2023-10-30T02:00:28.246Z,1.10
2023-10-30T02:02:57.118Z,1.08
2023-10-30T02:05:23.662Z,1.10
2023-10-30T02:07:51.726Z,1.10
2023-10-30T02:10:18.523Z,1.15
2023-10-30T02:12:49.254Z,1.17
2023-10-30T02:15:15.754Z,1.20
2023-10-30T02:17:42.296Z,1.02
2023-10-30T02:20:09.601Z,1.10
2023-10-30T02:22:36.187Z,0.93
2023-10-30T02:25:05.305Z,0.80
2023-10-30T02:27:33.158Z,1.20
2023-10-30T02:29:59.718Z,1.17
2023-10-30T02:32:26.154Z,0.90
2023-10-30T02:34:52.678Z,0.77
2023-10-30T02:37:19.252Z,1.17
2023-10-30T02:39:45.712Z,1.10
2023-10-30T02:42:12.627Z,0.85
2023-10-30T02:44:40.428Z,1.50
2023-10-30T02:47:06.872Z,1.52
2023-10-30T02:49:33.530Z,1.23
2023-10-30T02:51:59.949Z,0.85
2023-10-30T02:54:26.504Z,1.17
2023-10-30T02:56:52.962Z,1.17
2023-10-30T02:59:19.489Z,1.20
2023-10-30T03:01:47.353Z,0.90
2023-10-30T03:04:14.083Z,1.10
2023-10-30T03:06:41.076Z,0.98
2023-10-30T03:09:07.743Z,1.10
2023-10-30T03:11:34.381Z,1.58
2023-10-30T03:14:00.837Z,0.98
2023-10-30T03:16:27.428Z,1.23
2023-10-30T03:18:55.449Z,1.00
2023-10-30T03:21:22.136Z,1.20
2023-10-30T03:23:48.789Z,0.95
2023-10-30T03:26:15.286Z,1.27
2023-10-30T03:28:41.724Z,1.33
2023-10-30T03:31:09.203Z,1.10
2023-10-30T03:33:36.554Z,1.10
2023-10-30T03:36:05.574Z,1.05
2023-10-30T03:38:32.195Z,1.20
2023-10-30T03:40:59.689Z,1.27
2023-10-30T03:43:26.120Z,1.10
2023-10-30T03:45:52.902Z,1.40
2023-10-30T03:48:19.482Z,1.17
2023-10-30T03:50:49.631Z,1.00
2023-10-30T03:53:17.392Z,0.95
2023-10-30T03:55:43.927Z,1.52
2023-10-30T03:58:10.463Z,1.57
2023-10-30T04:00:37.033Z,1.00
2023-10-30T04:03:03.557Z,0.88
2023-10-30T04:05:30.145Z,0.93
2023-10-30T04:07:56.627Z,1.10
2023-10-30T04:10:24.455Z,1.00
2023-10-30T04:12:53.287Z,1.00
2023-10-30T04:15:20.115Z,1.58
2023-10-30T04:17:46.718Z,1.10
2023-10-30T04:20:13.282Z,1.02
2023-10-30T04:22:39.787Z,1.20
2023-10-30T04:25:08.375Z,0.90
2023-10-30T04:27:36.198Z,1.15
2023-10-30T04:30:03.113Z,1.20
2023-10-30T04:32:29.679Z,0.90
2023-10-30T04:34:56.136Z,1.30
2023-10-30T04:37:22.628Z,0.98
2023-10-30T04:39:49.423Z,1.33
2023-10-30T04:42:16.288Z,1.20
2023-10-30T04:44:44.247Z,1.20
2023-10-30T04:47:10.677Z,0.97
2023-10-30T04:49:37.175Z,1.42
2023-10-30T04:52:04.193Z,1.10
2023-10-30T04:54:30.834Z,1.10
2023-10-30T04:56:57.321Z,0.70
2023-10-30T04:59:23.796Z,1.07
2023-10-30T05:01:51.647Z,0.88
2023-10-30T05:04:18.121Z,1.30
2023-10-30T05:06:44.688Z,1.20
2023-10-30T05:09:11.249Z,1.40
2023-10-30T05:11:38.124Z,1.00
2023-10-30T05:14:04.968Z,0.80
2023-10-30T05:16:31.474Z,1.27
2023-10-30T05:18:59.403Z,2.08
2023-10-30T05:21:25.995Z,1.00
2023-10-30T05:23:52.544Z,1.10
2023-10-30T05:26:19.029Z,1.05
2023-10-30T05:28:45.750Z,1.05
2023-10-30T05:31:12.340Z,1.10
2023-10-30T05:33:39.194Z,1.25
2023-10-30T05:36:07.662Z,1.23
2023-10-30T05:38:34.272Z,1.00
2023-10-30T05:41:00.744Z,5.13
2023-10-30T05:43:27.537Z,1.08
2023-10-30T05:45:54.104Z,1.00
2023-10-30T05:48:20.753Z,1.10
2023-10-30T05:50:47.199Z,1.25
2023-10-30T05:53:15.088Z,1.08
2023-10-30T05:55:45.462Z,1.13
2023-10-30T05:58:12.230Z,1.02
2023-10-30T06:00:38.912Z,0.90
2023-10-30T06:03:07.895Z,0.90
2023-10-30T06:05:34.483Z,1.05
2023-10-30T06:08:01.204Z,1.13
2023-10-30T06:10:29.298Z,1.08
2023-10-30T06:12:57.402Z,1.73
2023-10-30T06:15:28.786Z,1.13
2023-10-30T06:17:55.750Z,0.98
2023-10-30T06:20:27.831Z,1.20
2023-10-30T06:23:26.831Z,1.00
2023-10-30T06:26:25.455Z,1.00
2023-10-30T06:28:54.507Z,1.10
2023-10-30T06:31:28.243Z,1.35
2023-10-30T06:33:54.861Z,0.90
2023-10-30T06:36:31.083Z,0.90
2023-10-30T06:39:03.252Z,0.97
2023-10-30T06:41:32.178Z,1.15
2023-10-30T06:44:08.101Z,1.08
2023-10-30T06:46:49.669Z,1.05
2023-10-30T06:49:30.365Z,1.30
2023-10-30T06:51:57.929Z,1.20
2023-10-30T06:54:30.595Z,1.17
2023-10-30T06:56:59.072Z,1.08
2023-10-30T06:59:28.197Z,0.98
2023-10-30T07:02:00.029Z,1.20
2023-10-30T07:04:33.216Z,1.03
2023-10-30T07:07:13.156Z,1.08
2023-10-30T07:09:43.817Z,1.02
2023-10-30T07:12:12.710Z,1.10
2023-10-30T07:14:39.566Z,1.05
2023-10-30T07:17:06.251Z,1.00
2023-10-30T07:19:32.748Z,1.38
2023-10-30T07:21:59.264Z,1.00
2023-10-30T07:24:26.176Z,1.10
2023-10-30T07:33:54.985Z,1.13
2023-10-30T07:36:21.761Z,1.15
2023-10-30T08:11:00.661Z,1.58
2023-10-30T08:13:27.478Z,1.15
2023-10-30T08:15:54.412Z,1.27
2023-10-30T08:18:22.552Z,1.40
2023-10-30T08:20:49.163Z,1.33
2023-10-30T08:23:21.412Z,1.17
2023-10-30T08:25:48.190Z,1.00
2023-10-30T08:28:23.700Z,1.20
2023-10-30T08:31:00.026Z,1.27
2023-10-30T08:33:28.039Z,1.10
2023-10-30T08:35:58.520Z,1.30
2023-10-30T08:38:25.042Z,1.65
2023-10-30T08:40:51.630Z,1.30
2023-10-30T08:43:18.105Z,1.10
2023-10-30T08:45:52.507Z,1.02
2023-10-30T08:48:20.108Z,1.30
2023-10-30T08:50:48.201Z,1.08
2023-10-30T08:53:15.462Z,1.20
2023-10-30T08:55:42.166Z,1.08
2023-10-30T08:58:08.777Z,1.20
2023-10-30T09:00:39.770Z,1.00
2023-10-30T09:03:07.596Z,1.33
2023-10-30T09:05:34.391Z,0.90
2023-10-30T09:08:02.412Z,1.17
2023-10-30T09:10:28.943Z,0.80
2023-10-30T09:12:55.598Z,0.80
2023-10-30T09:15:22.435Z,0.90
2023-10-30T09:17:49.136Z,1.00
2023-10-30T09:20:15.835Z,1.10
2023-10-30T09:22:42.381Z,1.50
2023-10-30T09:25:10.334Z,0.98
2023-10-30T09:27:36.995Z,1.25
2023-10-30T09:30:04.048Z,0.90
2023-10-30T09:32:30.883Z,1.10
2023-10-30T09:34:57.882Z,0.95
2023-10-30T09:37:24.473Z,0.80
2023-10-30T09:39:51.181Z,1.08
2023-10-30T09:42:19.005Z,0.90
2023-10-30T09:44:46.125Z,0.90
2023-10-30T09:47:13.205Z,0.73
2023-10-30T09:49:40.424Z,0.80
2023-10-30T09:52:09.024Z,1.00
2023-10-30T09:54:36.355Z,1.30
2023-10-30T09:57:03.799Z,0.73
2023-10-30T09:59:33.764Z,0.88
2023-10-30T10:02:01.070Z,0.80
2023-10-30T10:04:27.753Z,0.90
2023-10-30T10:06:55.310Z,0.93
2023-10-30T10:09:21.895Z,0.93
2023-10-30T10:12:03.345Z,0.80
2023-10-30T10:14:35.092Z,0.80
2023-10-30T10:17:05.963Z,0.70
2023-10-30T10:19:34.320Z,1.07
2023-10-30T10:22:05.647Z,0.80
2023-10-30T10:24:38.304Z,0.80
2023-10-30T10:27:05.965Z,0.85
2023-10-30T10:29:36.080Z,0.88
2023-10-30T10:32:02.889Z,0.83
2023-10-30T10:34:32.311Z,0.90
2023-10-30T10:36:59.629Z,0.65
2023-10-30T10:39:26.403Z,0.73
2023-10-30T10:41:54.166Z,0.70
2023-10-30T10:44:22.630Z,0.87
2023-10-30T10:46:51.834Z,0.77
2023-10-30T10:49:21.311Z,0.90
2023-10-30T10:51:48.400Z,0.85
2023-10-30T10:54:24.023Z,0.80
2023-10-30T10:56:54.113Z,0.90
2023-10-30T10:59:27.365Z,0.90
2023-10-30T11:02:00.089Z,0.80
2023-10-30T11:04:28.871Z,0.85
2023-10-30T11:07:04.409Z,0.90
2023-10-30T11:12:58.081Z,0.80
2023-10-30T11:15:55.156Z,0.98
2023-10-30T11:21:41.238Z,0.90
2023-10-30T11:24:11.653Z,1.00
2023-10-30T11:26:40.603Z,0.93
2023-10-30T11:29:11.745Z,1.05
2023-10-30T11:31:52.395Z,0.70
2023-10-30T11:34:35.239Z,0.70
2023-10-30T11:37:16.642Z,0.93
2023-10-30T11:40:15.179Z,0.80
2023-10-30T11:42:43.889Z,0.80
2023-10-30T11:45:19.705Z,0.90
2023-10-30T11:47:47.215Z,0.90
2023-10-30T11:50:16.578Z,0.90
2023-10-30T11:52:45.435Z,1.00
2023-10-30T11:55:12.480Z,0.80
2023-10-30T11:57:39.707Z,0.90
2023-10-30T12:00:07.477Z,0.75
2023-10-30T12:02:40.015Z,0.70
2023-10-30T12:05:07.156Z,0.73
2023-10-30T12:07:33.941Z,0.90
2023-10-30T12:10:02.222Z,0.70
2023-10-30T12:12:34.811Z,0.93
2023-10-30T12:15:01.882Z,0.70
2023-10-30T12:17:40.532Z,0.65
2023-10-30T12:20:38.073Z,0.47
2023-10-30T12:23:09.399Z,0.70
2023-10-30T12:25:38.733Z,0.55
2023-10-30T12:28:05.307Z,0.80
2023-10-30T12:30:35.529Z,0.68
2023-10-30T12:33:02.302Z,1.67
2023-10-30T12:35:29.065Z,0.90
2023-10-30T12:37:55.908Z,0.80
2023-10-30T12:40:22.503Z,0.60
2023-10-30T12:42:50.477Z,0.60
2023-10-30T12:45:21.898Z,0.57
2023-10-30T12:47:49.672Z,0.60
2023-10-30T12:50:17.137Z,0.50
2023-10-30T12:52:44.165Z,0.60
2023-10-30T12:55:11.863Z,0.50
2023-10-30T12:57:38.570Z,0.40
2023-10-30T13:00:16.354Z,0.50
2023-10-30T13:02:43.217Z,0.50
2023-10-30T13:05:10.009Z,0.60
2023-10-30T13:07:43.955Z,0.45
2023-10-30T13:10:10.558Z,0.55
2023-10-30T13:12:37.077Z,0.60
2023-10-30T13:15:04.236Z,0.60
2023-10-30T13:17:32.243Z,0.60
2023-10-30T13:19:58.769Z,0.45
2023-10-30T13:22:25.942Z,0.50
2023-10-30T13:24:52.774Z,0.43
2023-10-30T13:27:19.594Z,0.50
2023-10-30T13:29:46.168Z,0.40
2023-10-30T13:32:12.738Z,0.50
2023-10-30T13:34:40.635Z,0.40
2023-10-30T13:37:07.542Z,0.50
2023-10-30T13:39:34.275Z,0.50
2023-10-30T13:42:00.796Z,0.60
2023-10-30T13:44:27.551Z,0.50
2023-10-30T13:46:54.410Z,0.52
2023-10-30T13:49:21.022Z,0.50
2023-10-30T13:51:49.081Z,0.52
2023-10-30T13:54:15.591Z,0.50
2023-10-30T13:56:42.293Z,0.57
2023-10-30T13:59:08.966Z,0.55
2023-10-30T14:01:35.631Z,0.50
2023-10-30T14:04:02.990Z,0.45
2023-10-30T14:06:29.854Z,0.60
2023-10-30T14:08:58.879Z,0.60
2023-10-30T14:11:27.672Z,0.40
2023-10-30T14:13:56.273Z,0.40
2023-10-30T14:16:56.659Z,0.55
2023-10-30T14:23:33.497Z,0.40
2023-10-30T14:26:01.718Z,0.50
2023-10-30T14:28:28.506Z,0.70
2023-10-30T14:30:55.066Z,0.52
2023-10-30T14:33:21.615Z,0.50
2023-10-30T14:35:51.171Z,0.50
2023-10-30T14:38:17.624Z,0.50
2023-10-30T14:40:44.162Z,0.60
2023-10-30T14:43:13.175Z,0.55
2023-10-30T14:45:39.748Z,0.50
2023-10-30T14:48:06.321Z,0.60
2023-10-30T14:50:32.908Z,0.50
2023-10-30T14:52:59.824Z,0.60
2023-10-30T14:55:26.459Z,0.65
2023-10-30T14:57:52.947Z,0.50
2023-10-30T15:00:20.841Z,0.50
2023-10-30T15:02:47.513Z,0.60
2023-10-30T15:05:14.167Z,0.65
2023-10-30T15:07:40.877Z,0.60
2023-10-30T15:10:08.474Z,0.60
2023-10-30T15:12:35.073Z,0.43
2023-10-30T15:15:01.840Z,0.52
2023-10-30T15:17:33.155Z,0.70
2023-10-30T15:20:01.740Z,0.50
2023-10-30T15:22:28.277Z,0.70
2023-10-30T15:24:54.820Z,0.50
2023-10-30T15:27:21.288Z,0.50
2023-10-30T15:29:47.770Z,0.50
2023-10-30T15:32:14.297Z,0.50
2023-10-30T15:34:42.234Z,0.60
2023-10-30T15:37:08.850Z,0.60
2023-10-30T15:39:35.835Z,0.60
2023-10-30T15:42:02.365Z,0.50
2023-10-30T15:44:28.890Z,0.57
2023-10-30T15:47:10.658Z,0.80
2023-10-30T15:49:46.979Z,0.52
2023-10-30T15:59:43.045Z,0.73
2023-10-30T16:02:09.696Z,0.73
2023-10-30T16:07:07.669Z,0.70
2023-10-30T16:09:34.624Z,1.00
2023-10-30T16:14:33.703Z,0.60
2023-10-30T16:17:18.967Z,0.85
2023-10-30T16:20:21.457Z,0.80
2023-10-30T16:22:38.823Z,0.70
2023-10-30T16:25:06.230Z,0.87
2023-10-30T16:27:32.941Z,0.70
2023-10-30T16:29:59.719Z,0.60
2023-10-30T16:32:26.672Z,0.77
2023-10-30T16:34:53.476Z,0.90
2023-10-30T16:37:19.994Z,0.90
2023-10-30T16:39:48.134Z,1.00
2023-10-30T16:42:14.790Z,0.80
2023-10-30T16:44:41.359Z,0.70
2023-10-30T16:47:07.988Z,0.93
2023-10-30T16:49:34.677Z,0.73
2023-10-30T16:52:01.204Z,1.00
2023-10-30T16:54:27.741Z,1.10
2023-10-30T16:56:55.801Z,1.50
2023-10-30T16:59:22.408Z,1.75
2023-10-30T17:01:49.124Z,1.80
2023-10-30T17:04:15.714Z,1.60
2023-10-30T17:06:42.379Z,1.40
2023-10-30T17:09:08.989Z,0.93
2023-10-30T17:11:35.519Z,0.90
2023-10-30T17:14:05.893Z,0.80
2023-10-30T17:16:32.582Z,1.08
2023-10-30T17:18:59.442Z,0.90
2023-10-30T17:21:26.291Z,1.13
2023-10-30T17:23:52.779Z,1.00
2023-10-30T17:26:19.265Z,0.97
2023-10-30T17:28:46.183Z,0.80
2023-10-30T17:31:14.928Z,0.82
2023-10-30T17:33:41.379Z,1.10
2023-10-30T17:36:08.828Z,1.00
2023-10-30T17:38:35.702Z,1.00
2023-10-30T17:41:10.670Z,0.95
2023-10-30T17:43:41.558Z,1.10
2023-10-30T17:46:41.485Z,1.30
2023-10-30T17:50:10.845Z,1.20
2023-10-30T17:52:37.458Z,1.33
2023-10-30T17:55:04.690Z,1.20
2023-10-30T17:57:31.240Z,1.42
2023-10-30T17:59:57.734Z,1.40
2023-10-30T18:02:28.499Z,1.33
2023-10-30T18:04:55.281Z,1.47
2023-10-30T18:07:21.805Z,1.55
2023-10-30T18:09:48.463Z,1.83
2023-10-30T18:12:15.893Z,1.70
2023-10-30T18:14:42.403Z,2.15
2023-10-30T18:17:08.892Z,1.70
2023-10-30T18:19:36.736Z,1.65
2023-10-30T18:22:03.540Z,1.70
2023-10-30T18:24:34.643Z,1.60
2023-10-30T18:27:21.667Z,1.30
2023-10-30T18:29:53.152Z,1.67
2023-10-30T18:32:22.913Z,1.35
2023-10-30T18:35:06.545Z,1.40
2023-10-30T18:37:33.258Z,1.67
2023-10-30T18:40:01.742Z,1.70
2023-10-30T18:42:30.571Z,1.63
2023-10-30T18:44:57.824Z,1.70
2023-10-30T18:47:24.644Z,1.45
2023-10-30T18:49:54.564Z,1.70
2023-10-30T18:52:22.642Z,1.65
2023-10-30T18:54:51.091Z,2.03
2023-10-30T18:57:17.626Z,1.75
2023-10-30T18:59:46.738Z,2.17
2023-10-30T19:03:14.043Z,2.00
2023-10-30T19:27:24.065Z,2.97
2023-10-30T19:29:59.785Z,3.33
2023-10-30T19:33:10.696Z,3.05
2023-10-30T19:36:10.230Z,2.92
2023-10-30T19:38:39.667Z,3.10
2023-10-30T19:41:06.381Z,2.77
2023-10-30T19:43:45.661Z,3.38
2023-10-30T19:46:12.447Z,3.05
2023-10-30T19:48:40.779Z,2.78
2023-10-30T19:51:07.379Z,2.83
2023-10-30T19:53:38.748Z,3.20
2023-10-30T19:56:10.395Z,3.50
2023-10-30T19:58:37.088Z,3.70
2023-10-30T20:01:04.207Z,4.10
2023-10-30T20:03:30.857Z,4.43
2023-10-30T20:06:06.114Z,4.97
2023-10-30T20:08:36.198Z,5.40
2023-10-30T20:11:05.985Z,5.30
2023-10-30T20:13:33.703Z,5.10
2023-10-30T20:16:02.439Z,5.53
2023-10-30T20:18:31.094Z,5.73
2023-10-30T20:20:59.534Z,5.80
2023-10-30T20:26:24.464Z,5.53
2023-10-30T20:29:03.926Z,5.45
2023-10-30T20:31:32.603Z,5.73
2023-10-30T20:34:05.136Z,5.63
2023-10-30T20:36:34.660Z,5.47
2023-10-30T20:39:01.699Z,5.88
2023-10-30T20:41:28.719Z,5.32
2023-10-30T20:43:57.516Z,5.70
2023-10-30T20:46:25.938Z,5.30
2023-10-30T20:49:00.375Z,5.95
2023-10-30T20:51:27.561Z,5.57
2023-10-30T20:53:58.851Z,5.70
2023-10-30T20:56:28.034Z,5.27
2023-10-30T20:58:55.673Z,5.43
2023-10-30T21:01:23.819Z,5.50
2023-10-30T21:03:53.667Z,5.45
2023-10-30T21:06:20.342Z,4.93
2023-10-30T21:08:59.575Z,5.30
2023-10-30T21:11:27.830Z,4.18
2023-10-30T21:13:57.562Z,4.65
2023-10-30T21:16:24.294Z,4.45
2023-10-30T21:18:51.403Z,4.43
2023-10-30T21:21:18.027Z,4.17
2023-10-30T21:23:47.615Z,3.85
2023-10-30T21:26:15.605Z,3.45
2023-10-30T21:28:42.155Z,3.67
2023-10-30T21:31:10.394Z,3.72
2023-10-30T21:33:39.411Z,3.70
2023-10-30T21:36:06.429Z,3.00
2023-10-30T21:38:33.193Z,3.42
2023-10-30T21:41:00.307Z,3.20
2023-10-30T21:43:28.951Z,3.30
2023-10-30T21:45:55.661Z,3.70
2023-10-30T21:48:22.310Z,3.92
2023-10-30T21:50:51.284Z,4.18
2023-10-30T21:53:18.265Z,4.28
2023-10-30T21:55:45.345Z,4.65
2023-10-30T21:58:12.344Z,4.33
2023-10-30T22:00:40.447Z,4.20
2023-10-30T22:03:07.187Z,4.32
2023-10-30T22:05:34.355Z,4.00
2023-10-30T22:08:01.042Z,3.83
2023-10-30T22:10:27.886Z,3.87
2023-10-30T22:12:54.638Z,3.63
2023-10-30T22:15:21.460Z,3.90
2023-10-30T22:17:51.908Z,3.60
2023-10-30T22:20:18.439Z,3.30
2023-10-30T22:22:45.080Z,3.03
2023-10-30T22:25:11.927Z,2.70
2023-10-30T22:27:40.276Z,2.85
2023-10-30T22:30:11.467Z,3.30
2023-10-30T22:32:40.407Z,3.20
2023-10-30T22:35:09.337Z,2.80
2023-10-30T22:37:36.285Z,2.78
2023-10-30T22:40:03.166Z,3.10
2023-10-30T22:42:29.801Z,3.42
2023-10-30T22:44:57.452Z,3.42
2023-10-30T22:47:26.391Z,3.07
2023-10-30T22:49:55.681Z,3.20
2023-10-30T22:52:23.733Z,2.97
2023-10-30T22:54:50.393Z,3.40
2023-10-30T22:57:17.147Z,2.70
2023-10-30T22:59:43.741Z,2.83
2023-10-30T23:02:10.262Z,2.80
2023-10-30T23:04:36.993Z,2.83
2023-10-30T23:07:04.181Z,2.72
2023-10-30T23:09:32.135Z,2.60
2023-10-30T23:11:58.685Z,2.70
2023-10-30T23:14:25.378Z,2.20
2023-10-30T23:16:52.164Z,2.20
2023-10-30T23:19:18.958Z,2.10
2023-10-30T23:21:45.618Z,2.28
2023-10-30T23:24:12.300Z,2.07
2023-10-30T23:26:40.404Z,2.88
2023-10-30T23:29:07.226Z,2.10
2023-10-30T23:31:34.505Z,2.65
2023-10-30T23:34:01.256Z,2.65
2023-10-30T23:36:27.764Z,2.50
2023-10-30T23:38:54.761Z,2.20
2023-10-30T23:41:21.338Z,2.60
2023-10-30T23:43:49.308Z,2.13
2023-10-30T23:46:18.485Z,1.70
2023-10-30T23:48:47.281Z,1.90
2023-10-30T23:51:13.955Z,1.90
2023-10-30T23:53:40.831Z,1.77
2023-10-30T23:56:11.378Z,1.85
2023-10-30T23:58:40.189Z,1.70
